Time;durP1;ratioP1;P1;durP2;ratioP2;P2;SDS_P1;SDS_P2;PMS_P1;PMS_P2;Temp;Humidity;BMP_temperature;BMP_pressure;BME280_temperature;BME280_humidity;BME280_pressure;Samples;Min_cycle;Max_cycle;Signal;HPM_P1;HPM_P2
2024/03/08 00:02:04;;;;;;;42.40;27.00;;;;;;;;;;103328;1301;545345;-71
2024/03/08 00:05:42;;;;;;;43.70;29.20;;;;;;;;;;103748;1291;545069;-71
2024/03/08 00:09:17;;;;;;;44.30;30.40;;;;;;;;;;104564;1279;544697;-71
2024/03/08 00:12:57;;;;;;;45.40;30.20;;;;;;;;;;103768;1288;546142;-71
2024/03/08 00:16:43;;;;;;;45.10;29.60;;;;;;;;;;103622;1290;545865;-71
2024/03/08 00:20:13;;;;;;;41.80;28.40;;;;;;;;;;103650;1291;544996;-71
2024/03/08 00:24:15;;;;;;;42.00;27.10;;;;;;;;;;103701;1302;545317;-71
2024/03/08 00:27:27;;;;;;;44.20;28.50;;;;;;;;;;103746;1292;544852;-70
2024/03/08 00:31:15;;;;;;;44.00;28.80;;;;;;;;;;103464;1293;544969;-71
2024/03/08 00:34:44;;;;;;;44.00;29.90;;;;;;;;;;103567;1292;544757;-72
2024/03/08 00:38:32;;;;;;;45.00;28.20;;;;;;;;;;103749;1289;544971;-71
2024/03/08 00:41:57;;;;;;;40.20;26.40;;;;;;;;;;104401;1283;545522;-71
2024/03/08 00:45:34;;;;;;;39.90;26.10;;;;;;;;;;103655;1295;545240;-71
2024/03/08 00:49:12;;;;;;;41.00;27.00;;;;;;;;;;103683;1292;544737;-70
2024/03/08 00:52:50;;;;;;;42.10;28.80;;;;;;;;;;103378;1295;545096;-71
2024/03/08 00:56:29;;;;;;;42.90;28.40;;;;;;;;;;103433;1294;544773;-71
2024/03/08 01:03:48;;;;;;;41.50;27.10;;;;;;;;;;104412;1282;546424;-71
2024/03/08 01:07:35;;;;;;;;;;;;;;;;;;;;;
2024/03/08 01:11:30;;;;;;;;;;;;;;;;;;;;;
2024/03/08 01:14:34;;;;;;;46.50;30.60;;;;;;;;;;103635;1295;545001;-71
2024/03/08 01:18:31;;;;;;;46.20;29.50;;;;;;;;;;103524;1293;545204;-71
2024/03/08 01:21:49;;;;;;;49.00;32.20;;;;;;;;;;103552;1289;545566;-69
2024/03/08 01:25:27;;;;;;;40.90;27.70;;;;;;;;;;103626;1293;545630;-70
2024/03/08 01:29:23;;;;;;;44.00;27.20;;;;;;;;;;103708;1292;545107;-70
2024/03/08 01:33:12;;;;;;;;;;;;;;;;;;;;;
2024/03/08 01:36:59;;;;;;;43.80;28.70;;;;;;;;;;103680;1294;545580;-74
2024/03/08 01:40:08;;;;;;;44.20;29.00;;;;;;;;;;103517;1292;545543;-70
2024/03/08 01:44:17;;;;;;;39.00;26.50;;;;;;;;;;103564;1292;545438;-74
2024/03/08 01:47:24;;;;;;;39.90;26.50;;;;;;;;;;103526;1293;545390;-70
2024/03/08 01:51:02;;;;;;;40.00;25.80;;;;;;;;;;103756;1289;544802;-70
2024/03/08 01:54:30;;;;;;;43.00;28.00;;;;;;;;;;103737;1300;544800;-70
2024/03/08 01:58:15;;;;;;;49.40;31.30;;;;;;;;;;103650;1288;545723;-70
2024/03/08 02:02:15;;;;;;;48.90;31.90;;;;;;;;;;103514;1292;548131;-70
2024/03/08 02:05:25;;;;;;;83.50;52.20;;;;;;;;;;103647;1291;544781;-71
2024/03/08 02:09:06;;;;;;;52.00;33.40;;;;;;;;;;103732;1292;545625;-70
2024/03/08 02:13:02;;;;;;;41.50;27.40;;;;;;;;;;103660;1289;545001;-71
2024/03/08 02:16:28;;;;;;;40.80;26.80;;;;;;;;;;103690;1290;544635;-71
2024/03/08 02:19:59;;;;;;;43.70;29.20;;;;;;;;;;103636;1289;544844;-70
2024/03/08 02:23:42;;;;;;;46.00;30.30;;;;;;;;;;103564;1292;545554;-70
2024/03/08 02:27:23;;;;;;;48.30;31.20;;;;;;;;;;103594;1298;545947;-70
2024/03/08 02:30:48;;;;;;;48.70;31.80;;;;;;;;;;103559;1290;545221;-69
2024/03/08 02:34:29;;;;;;;47.60;30.20;;;;;;;;;;103330;1294;545509;-71
2024/03/08 02:38:47;;;;;;;42.00;28.20;;;;;;;;;;103694;1288;548124;-70
2024/03/08 02:41:46;;;;;;;46.70;29.70;;;;;;;;;;103587;1291;545224;-70
2024/03/08 02:45:23;;;;;;;44.40;28.90;;;;;;;;;;103424;1301;545004;-69
2024/03/08 02:48:58;;;;;;;44.40;29.90;;;;;;;;;;103795;1291;544999;-71
2024/03/08 02:52:36;;;;;;;50.40;33.00;;;;;;;;;;103555;1292;544976;-71
2024/03/08 02:56:16;;;;;;;49.50;30.80;;;;;;;;;;103693;1289;544841;-70
2024/03/08 03:00:01;;;;;;;49.80;31.00;;;;;;;;;;103676;1288;545000;-69
2024/03/08 03:03:32;;;;;;;44.40;29.40;;;;;;;;;;103607;1292;544833;-71
2024/03/08 03:07:04;;;;;;;47.20;30.20;;;;;;;;;;103706;1289;545590;-69
2024/03/08 03:10:40;;;;;;;46.80;30.60;;;;;;;;;;103771;1290;544725;-70
2024/03/08 03:14:17;;;;;;;49.60;32.90;;;;;;;;;;103575;1292;545335;-69
2024/03/08 03:17:55;;;;;;;50.50;33.20;;;;;;;;;;103655;1290;544911;-71
2024/03/08 03:21:32;;;;;;;50.50;31.80;;;;;;;;;;103499;1291;545015;-71
2024/03/08 03:25:59;;;;;;;44.20;30.10;;;;;;;;;;103636;1295;544973;-70
2024/03/08 03:28:56;;;;;;;43.00;29.50;;;;;;;;;;103726;1289;544980;-70
2024/03/08 03:32:26;;;;;;;40.50;27.60;;;;;;;;;;103672;1292;545563;-69
2024/03/08 03:36:05;;;;;;;44.80;28.10;;;;;;;;;;103827;1289;545430;-70
2024/03/08 03:39:49;;;;;;;42.60;29.20;;;;;;;;;;103559;1293;544912;-69
2024/03/08 03:43:18;;;;;;;45.10;28.20;;;;;;;;;;103637;1290;545084;-70
2024/03/08 03:47:08;;;;;;;;;;;;;;;;;;;;;
2024/03/08 03:50:39;;;;;;;43.90;29.30;;;;;;;;;;103467;1291;545061;-69
2024/03/08 03:54:13;;;;;;;44.30;29.40;;;;;;;;;;103552;1295;546129;-70
2024/03/08 03:57:51;;;;;;;42.90;28.60;;;;;;;;;;103740;1289;544736;-70
2024/03/08 04:01:25;;;;;;;43.40;29.00;;;;;;;;;;103640;1289;545692;-69
2024/03/08 04:05:14;;;;;;;39.90;28.00;;;;;;;;;;103534;1291;545577;-68
2024/03/08 04:08:40;;;;;;;42.20;29.70;;;;;;;;;;103540;1292;544982;-69
2024/03/08 04:12:25;;;;;;;45.40;30.70;;;;;;;;;;103689;1289;545757;-69
2024/03/08 04:15:55;;;;;;;43.50;29.90;;;;;;;;;;103694;1292;545529;-70
2024/03/08 04:19:34;;;;;;;43.60;29.60;;;;;;;;;;103645;1291;545872;-69
2024/03/08 04:23:10;;;;;;;44.40;28.20;;;;;;;;;;103655;1292;544803;-68
2024/03/08 04:26:48;;;;;;;41.80;26.70;;;;;;;;;;105703;1291;545757;-69
2024/03/08 04:30:28;;;;;;;41.90;27.30;;;;;;;;;;103506;1289;545208;-67
2024/03/08 04:34:02;;;;;;;53.80;34.30;;;;;;;;;;103420;1289;545776;-68
2024/03/08 04:37:52;;;;;;;48.50;33.50;;;;;;;;;;103441;1292;544862;-66
2024/03/08 04:41:17;;;;;;;48.30;31.50;;;;;;;;;;103578;1292;544858;-68
2024/03/08 04:44:58;;;;;;;45.60;30.00;;;;;;;;;;103575;1294;546016;-68
2024/03/08 04:48:48;;;;;;;;;;;;;;;;;;;;;
2024/03/08 04:55:47;;;;;;;51.80;33.30;;;;;;;;;;103491;1292;545474;-68
2024/03/08 04:59:36;;;;;;;53.60;31.70;;;;;;;;;;103609;1292;545253;-69
2024/03/08 05:03:06;;;;;;;42.50;27.90;;;;;;;;;;103582;1290;545118;-68
2024/03/08 05:07:05;;;;;;;38.80;27.20;;;;;;;;;;103447;1305;545344;-69
2024/03/08 05:10:46;;;;;;;;;;;;;;;;;;;;;
2024/03/08 05:13:57;;;;;;;50.80;30.80;;;;;;;;;;103624;1292;545693;-68
2024/03/08 05:17:32;;;;;;;59.20;35.90;;;;;;;;;;103584;1295;545854;-68
2024/03/08 05:21:17;;;;;;;67.50;40.00;;;;;;;;;;103642;1292;545636;-67
2024/03/08 05:25:07;;;;;;;;;;;;;;;;;;;;;
2024/03/08 05:28:32;;;;;;;69.10;38.30;;;;;;;;;;103466;1295;548077;-68
2024/03/08 05:32:05;;;;;;;61.50;36.40;;;;;;;;;;103624;1289;545000;-67
2024/03/08 05:35:38;;;;;;;56.80;32.30;;;;;;;;;;103663;1293;544948;-68
2024/03/08 05:42:55;;;;;;;57.00;34.90;;;;;;;;;;103608;1295;544801;-68
2024/03/08 05:46:40;;;;;;;52.90;32.00;;;;;;;;;;103293;1294;545194;-69
2024/03/08 05:50:14;;;;;;;48.20;30.30;;;;;;;;;;103748;1292;544906;-68
2024/03/08 05:54:11;;;;;;;54.30;31.80;;;;;;;;;;103480;1292;544962;-68
2024/03/08 05:57:27;;;;;;;57.10;31.90;;;;;;;;;;103679;1289;545249;-67
2024/03/08 06:01:07;;;;;;;57.20;33.00;;;;;;;;;;103645;1289;544763;-68
2024/03/08 06:04:42;;;;;;;57.10;35.00;;;;;;;;;;103660;1288;545062;-68
2024/03/08 06:08:29;;;;;;;60.70;34.20;;;;;;;;;;103432;1291;545633;-69
2024/03/08 06:11:54;;;;;;;68.90;32.60;;;;;;;;;;103600;1291;545548;-69
2024/03/08 06:15:35;;;;;;;65.30;33.20;;;;;;;;;;103582;1292;544895;-68
2024/03/08 06:19:10;;;;;;;57.40;34.30;;;;;;;;;;103711;1289;545071;-68
2024/03/08 06:23:27;;;;;;;55.20;35.70;;;;;;;;;;103762;1290;545454;-68
2024/03/08 06:26:34;;;;;;;52.90;32.90;;;;;;;;;;103654;1301;544899;-68
2024/03/08 06:30:04;;;;;;;48.90;30.00;;;;;;;;;;103502;1292;545336;-68
2024/03/08 06:33:54;;;;;;;;;;;;;;;;;;;;;
2024/03/08 06:37:21;;;;;;;51.20;32.00;;;;;;;;;;104140;1289;545554;-70
2024/03/08 06:40:55;;;;;;;50.70;33.70;;;;;;;;;;104517;1282;544780;-69
2024/03/08 06:44:35;;;;;;;53.30;34.20;;;;;;;;;;103948;1287;544779;-69
2024/03/08 06:48:12;;;;;;;52.20;33.50;;;;;;;;;;103606;1290;545397;-70
2024/03/08 06:51:46;;;;;;;46.80;30.00;;;;;;;;;;105668;1289;545061;-70
2024/03/08 06:55:24;;;;;;;49.10;32.10;;;;;;;;;;103538;1289;545312;-70
2024/03/08 06:59:05;;;;;;;49.30;32.40;;;;;;;;;;103627;1296;544972;-70
2024/03/08 07:02:53;;;;;;;46.50;32.50;;;;;;;;;;103668;1291;544820;-71
2024/03/08 07:06:14;;;;;;;46.90;32.20;;;;;;;;;;103537;1295;545053;-70
2024/03/08 07:09:56;;;;;;;48.30;32.90;;;;;;;;;;103748;1295;545007;-71
2024/03/08 07:13:32;;;;;;;49.50;32.90;;;;;;;;;;103643;1291;545095;-70
2024/03/08 07:17:21;;;;;;;50.70;33.20;;;;;;;;;;103556;1295;545435;-71
2024/03/08 07:20:50;;;;;;;49.70;33.40;;;;;;;;;;103608;1289;545627;-70
2024/03/08 07:24:39;;;;;;;50.00;34.00;;;;;;;;;;103649;1291;545570;-71
2024/03/08 07:28:04;;;;;;;51.40;33.90;;;;;;;;;;103436;1295;545658;-71
2024/03/08 07:35:26;;;;;;;51.90;33.00;;;;;;;;;;103643;1291;544866;-70
2024/03/08 07:38:55;;;;;;;47.70;32.10;;;;;;;;;;103783;1289;546018;-71
2024/03/08 07:42:35;;;;;;;48.50;32.00;;;;;;;;;;103532;1292;545885;-70
2024/03/08 07:46:13;;;;;;;50.70;33.30;;;;;;;;;;103743;1289;545578;-70
2024/03/08 07:49:49;;;;;;;47.40;33.70;;;;;;;;;;103617;1289;544747;-71
2024/03/08 07:53:24;;;;;;;48.20;34.50;;;;;;;;;;103656;1292;544975;-71
2024/03/08 07:57:06;;;;;;;46.90;31.30;;;;;;;;;;103724;1292;545317;-71
2024/03/08 08:00:39;;;;;;;51.00;30.90;;;;;;;;;;103632;1297;544829;-71
2024/03/08 08:04:17;;;;;;;44.40;30.00;;;;;;;;;;103845;1289;544995;-72
2024/03/08 08:07:52;;;;;;;46.90;32.00;;;;;;;;;;103875;1293;544906;-70
2024/03/08 08:11:53;;;;;;;47.10;31.80;;;;;;;;;;103688;1288;545678;-71
2024/03/08 08:15:12;;;;;;;49.30;34.60;;;;;;;;;;103720;1289;545534;-72
2024/03/08 08:18:47;;;;;;;50.10;35.40;;;;;;;;;;103669;1292;544779;-71
2024/03/08 08:22:28;;;;;;;49.30;35.00;;;;;;;;;;103733;1289;544917;-71
2024/03/08 08:26:04;;;;;;;47.20;31.30;;;;;;;;;;103965;1301;545950;-71
2024/03/08 08:29:41;;;;;;;47.90;34.70;;;;;;;;;;103960;1289;545310;-72
2024/03/08 08:33:19;;;;;;;162.50;81.80;;;;;;;;;;103855;1288;545244;-72
2024/03/08 08:36:56;;;;;;;122.30;66.30;;;;;;;;;;103853;1290;546112;-71
2024/03/08 08:40:52;;;;;;;56.90;38.00;;;;;;;;;;103719;1289;544839;-72
2024/03/08 08:44:12;;;;;;;52.00;37.00;;;;;;;;;;103759;1289;545470;-71
2024/03/08 08:47:49;;;;;;;50.80;34.10;;;;;;;;;;103780;1293;544798;-70
2024/03/08 08:51:22;;;;;;;56.10;37.40;;;;;;;;;;103899;1289;545342;-71
2024/03/08 08:55:03;;;;;;;55.40;37.80;;;;;;;;;;103733;1288;544804;-72
2024/03/08 08:58:42;;;;;;;51.30;36.80;;;;;;;;;;103686;1292;544827;-71
2024/03/08 09:02:16;;;;;;;50.90;37.00;;;;;;;;;;103656;1291;545236;-72
2024/03/08 09:05:54;;;;;;;46.40;33.70;;;;;;;;;;103608;1289;544931;-71
2024/03/08 09:09:34;;;;;;;48.20;33.80;;;;;;;;;;103707;1288;545578;-72
2024/03/08 09:13:12;;;;;;;45.90;33.00;;;;;;;;;;103718;1292;544968;-71
2024/03/08 09:17:03;;;;;;;44.70;33.90;;;;;;;;;;103600;1290;545070;-71
2024/03/08 09:20:23;;;;;;;43.10;32.60;;;;;;;;;;103714;1292;545357;-71
2024/03/08 09:24:02;;;;;;;46.30;34.10;;;;;;;;;;103763;1289;546345;-71
2024/03/08 09:27:40;;;;;;;43.50;33.30;;;;;;;;;;103692;1295;544788;-70
2024/03/08 09:31:18;;;;;;;44.00;31.70;;;;;;;;;;103586;1291;545045;-72
2024/03/08 09:34:59;;;;;;;39.70;29.60;;;;;;;;;;104012;1289;546469;-70
2024/03/08 09:38:30;;;;;;;42.40;31.40;;;;;;;;;;103913;1292;544740;-70
2024/03/08 09:42:07;;;;;;;42.00;32.10;;;;;;;;;;103823;1290;544976;-71
2024/03/08 09:45:52;;;;;;;40.80;30.50;;;;;;;;;;104545;1282;545193;-72
2024/03/08 09:49:22;;;;;;;43.30;31.20;;;;;;;;;;104334;1283;544858;-71
2024/03/08 09:53:14;;;;;;;38.50;29.70;;;;;;;;;;103847;1292;545030;-71
2024/03/08 09:56:44;;;;;;;42.60;32.00;;;;;;;;;;103548;1291;548045;-70
2024/03/08 10:00:23;;;;;;;46.70;34.60;;;;;;;;;;103908;1289;544900;-71
2024/03/08 10:03:54;;;;;;;42.80;32.80;;;;;;;;;;103649;1288;544906;-72
2024/03/08 10:07:34;;;;;;;43.00;34.20;;;;;;;;;;103863;1293;544808;-72
2024/03/08 10:11:11;;;;;;;44.30;33.20;;;;;;;;;;103612;1295;545295;-71
2024/03/08 10:14:46;;;;;;;44.00;33.70;;;;;;;;;;103865;1290;545789;-71
2024/03/08 10:18:32;;;;;;;45.70;33.40;;;;;;;;;;103966;1287;545626;-72
2024/03/08 10:22:07;;;;;;;44.10;34.40;;;;;;;;;;103719;1289;545442;-71
2024/03/08 10:25:36;;;;;;;42.90;33.20;;;;;;;;;;103763;1289;545336;-72
2024/03/08 10:29:17;;;;;;;44.80;33.50;;;;;;;;;;103716;1292;545048;-71
2024/03/08 10:32:51;;;;;;;43.60;33.40;;;;;;;;;;103738;1292;544936;-72
2024/03/08 10:36:34;;;;;;;47.70;35.90;;;;;;;;;;103677;1291;544767;-72
2024/03/08 10:40:18;;;;;;;44.40;35.90;;;;;;;;;;103581;1293;545696;-72
2024/03/08 10:43:57;;;;;;;45.70;34.70;;;;;;;;;;104129;1284;544786;-71
2024/03/08 10:47:29;;;;;;;44.90;34.70;;;;;;;;;;104226;1285;544987;-70
2024/03/08 10:50:59;;;;;;;41.50;33.30;;;;;;;;;;103759;1289;545040;-70
2024/03/08 10:54:40;;;;;;;42.80;33.20;;;;;;;;;;104336;1282;545766;-70
2024/03/08 10:58:15;;;;;;;44.10;34.70;;;;;;;;;;104586;1283;544992;-69
2024/03/08 11:01:55;;;;;;;42.90;33.10;;;;;;;;;;103582;1295;544783;-71
2024/03/08 11:05:35;;;;;;;40.60;33.20;;;;;;;;;;104396;1283;544789;-72
2024/03/08 11:09:25;;;;;;;43.30;32.90;;;;;;;;;;103537;1295;544971;-72
2024/03/08 11:12:56;;;;;;;39.00;30.60;;;;;;;;;;103609;1292;545256;-71
2024/03/08 11:16:25;;;;;;;41.50;33.40;;;;;;;;;;103756;1289;545019;-72
2024/03/08 11:20:01;;;;;;;42.60;32.80;;;;;;;;;;103631;1291;545639;-72
2024/03/08 11:23:36;;;;;;;39.10;32.80;;;;;;;;;;103651;1288;545381;-71
2024/03/08 11:27:14;;;;;;;42.40;32.90;;;;;;;;;;103697;1291;545461;-71
2024/03/08 11:30:58;;;;;;;38.10;30.70;;;;;;;;;;103465;1295;544808;-70
2024/03/08 11:34:30;;;;;;;39.70;30.50;;;;;;;;;;103685;1289;546028;-71
2024/03/08 11:38:08;;;;;;;37.00;30.40;;;;;;;;;;103719;1292;545832;-70
2024/03/08 11:41:45;;;;;;;39.20;31.00;;;;;;;;;;103829;1289;544936;-71
2024/03/08 11:45:21;;;;;;;36.60;30.00;;;;;;;;;;103807;1289;544782;-70
2024/03/08 11:49:00;;;;;;;35.20;30.00;;;;;;;;;;103824;1289;544938;-72
2024/03/08 11:52:36;;;;;;;37.60;30.70;;;;;;;;;;103494;1293;545402;-73
2024/03/08 11:56:15;;;;;;;36.70;29.50;;;;;;;;;;103727;1289;544870;-71
2024/03/08 11:59:58;;;;;;;39.00;31.80;;;;;;;;;;103770;1289;544939;-73
2024/03/08 12:03:29;;;;;;;43.30;31.30;;;;;;;;;;103836;1291;545644;-71
2024/03/08 12:07:09;;;;;;;39.70;30.80;;;;;;;;;;103805;1288;545602;-69
2024/03/08 12:10:46;;;;;;;39.50;30.50;;;;;;;;;;103864;1291;544978;-72
2024/03/08 12:14:20;;;;;;;40.20;31.60;;;;;;;;;;103747;1293;545047;-70
2024/03/08 12:18:00;;;;;;;39.00;30.60;;;;;;;;;;103819;1290;544979;-69
2024/03/08 12:21:36;;;;;;;40.10;31.30;;;;;;;;;;103811;1290;544988;-71
2024/03/08 12:25:14;;;;;;;42.30;31.40;;;;;;;;;;103455;1294;544947;-70
2024/03/08 12:28:50;;;;;;;38.30;30.50;;;;;;;;;;103630;1290;544973;-72
2024/03/08 12:32:31;;;;;;;39.50;30.70;;;;;;;;;;103678;1292;544912;-69
2024/03/08 12:36:13;;;;;;;37.10;30.40;;;;;;;;;;103704;1302;545004;-72
2024/03/08 12:39:40;;;;;;;37.20;30.40;;;;;;;;;;104659;1279;544764;-69
2024/03/08 12:43:20;;;;;;;39.40;31.90;;;;;;;;;;103483;1294;545500;-71
2024/03/08 12:46:59;;;;;;;35.30;30.00;;;;;;;;;;103827;1291;545063;-72
2024/03/08 12:50:36;;;;;;;37.80;30.60;;;;;;;;;;103769;1291;545723;-73
2024/03/08 12:54:13;;;;;;;37.70;30.60;;;;;;;;;;104288;1285;544757;-71
2024/03/08 12:57:53;;;;;;;40.80;32.60;;;;;;;;;;103618;1288;544790;-69
2024/03/08 13:01:28;;;;;;;38.80;30.40;;;;;;;;;;103762;1292;546104;-70
2024/03/08 13:05:01;;;;;;;37.10;29.40;;;;;;;;;;103761;1289;545354;-68
2024/03/08 13:08:43;;;;;;;35.30;28.50;;;;;;;;;;103710;1292;545724;-72
2024/03/08 13:12:23;;;;;;;37.90;29.10;;;;;;;;;;103686;1294;545628;-69
2024/03/08 13:16:00;;;;;;;35.00;29.00;;;;;;;;;;103981;1290;545535;-72
2024/03/08 13:19:35;;;;;;;34.00;28.50;;;;;;;;;;104192;1286;544752;-71
2024/03/08 13:23:13;;;;;;;39.20;29.80;;;;;;;;;;103566;1288;545058;-71
2024/03/08 13:26:50;;;;;;;37.40;28.80;;;;;;;;;;103727;1301;544716;-71
2024/03/08 13:30:31;;;;;;;38.30;30.00;;;;;;;;;;103935;1291;544989;-70
2024/03/08 13:34:05;;;;;;;35.30;29.00;;;;;;;;;;103515;1291;545128;-72
2024/03/08 13:37:45;;;;;;;37.40;28.40;;;;;;;;;;103545;1289;545943;-71
2024/03/08 13:41:24;;;;;;;35.80;29.40;;;;;;;;;;103594;1292;546039;-71
2024/03/08 13:44:58;;;;;;;39.00;30.40;;;;;;;;;;103643;1291;545669;-69
2024/03/08 13:48:37;;;;;;;37.30;30.80;;;;;;;;;;103629;1289;544801;-71
2024/03/08 13:52:16;;;;;;;36.20;29.20;;;;;;;;;;103480;1291;544787;-70
2024/03/08 13:55:50;;;;;;;34.20;28.00;;;;;;;;;;103664;1289;545694;-72
2024/03/08 13:59:24;;;;;;;37.40;29.10;;;;;;;;;;103751;1289;545029;-72
2024/03/08 14:03:12;;;;;;;40.10;29.30;;;;;;;;;;103674;1295;546110;-71
2024/03/08 14:06:44;;;;;;;33.50;27.40;;;;;;;;;;103321;1294;545070;-71
2024/03/08 14:10:22;;;;;;;36.50;29.40;;;;;;;;;;103704;1292;545193;-70
2024/03/08 14:13:57;;;;;;;35.30;27.20;;;;;;;;;;103586;1292;546147;-70
2024/03/08 14:17:35;;;;;;;35.20;27.30;;;;;;;;;;103734;1292;545739;-72
2024/03/08 14:21:14;;;;;;;37.60;28.30;;;;;;;;;;103521;1291;545021;-70
2024/03/08 14:24:51;;;;;;;37.90;28.70;;;;;;;;;;103470;1292;545528;-71
2024/03/08 14:28:27;;;;;;;37.20;28.60;;;;;;;;;;103302;1295;544799;-71
2024/03/08 14:32:08;;;;;;;37.00;27.40;;;;;;;;;;103675;1296;545715;-70
2024/03/08 14:35:47;;;;;;;35.80;28.00;;;;;;;;;;104288;1285;545351;-72
2024/03/08 14:39:26;;;;;;;35.10;28.20;;;;;;;;;;103462;1295;545309;-70
2024/03/08 14:42:57;;;;;;;37.10;28.60;;;;;;;;;;103517;1291;545194;-71
2024/03/08 14:46:35;;;;;;;37.90;29.20;;;;;;;;;;103494;1291;544784;-71
2024/03/08 14:50:12;;;;;;;36.00;28.10;;;;;;;;;;103389;1292;544787;-70
2024/03/08 14:53:49;;;;;;;36.70;28.70;;;;;;;;;;103641;1292;545001;-72
2024/03/08 14:57:27;;;;;;;39.40;29.60;;;;;;;;;;103580;1291;545322;-70
2024/03/08 15:01:07;;;;;;;36.50;28.50;;;;;;;;;;103690;1291;545416;-71
2024/03/08 15:05:03;;;;;;;38.80;29.20;;;;;;;;;;103379;1295;546136;-71
2024/03/08 15:08:22;;;;;;;38.50;29.60;;;;;;;;;;103470;1296;544768;-70
2024/03/08 15:11:54;;;;;;;38.50;29.10;;;;;;;;;;103504;1289;545376;-70
2024/03/08 15:15:33;;;;;;;37.70;28.90;;;;;;;;;;103406;1290;545362;-71
2024/03/08 15:19:15;;;;;;;38.60;29.60;;;;;;;;;;103658;1295;544642;-72
2024/03/08 15:23:20;;;;;;;35.40;28.40;;;;;;;;;;103693;1295;546042;-71
2024/03/08 15:26:22;;;;;;;40.90;31.80;;;;;;;;;;103651;1290;544778;-72
2024/03/08 15:30:04;;;;;;;43.20;32.90;;;;;;;;;;103677;1295;544825;-71
2024/03/08 15:37:17;;;;;;;42.60;32.50;;;;;;;;;;103865;1286;546315;-70
2024/03/08 15:40:56;;;;;;;40.10;30.50;;;;;;;;;;104421;1283;544782;-70
2024/03/08 15:44:33;;;;;;;45.10;32.00;;;;;;;;;;103594;1292;544749;-71
2024/03/08 15:48:10;;;;;;;40.50;30.80;;;;;;;;;;103647;1291;544853;-72
2024/03/08 15:51:48;;;;;;;39.80;31.10;;;;;;;;;;103681;1292;544933;-70
2024/03/08 15:55:27;;;;;;;41.50;29.50;;;;;;;;;;103482;1291;545078;-72
2024/03/08 15:59:06;;;;;;;42.90;30.20;;;;;;;;;;103652;1291;544932;-71
2024/03/08 16:02:41;;;;;;;40.50;29.90;;;;;;;;;;103868;1291;544962;-70
2024/03/08 16:06:22;;;;;;;43.70;31.70;;;;;;;;;;103593;1291;544986;-71
2024/03/08 16:09:56;;;;;;;42.80;32.50;;;;;;;;;;103740;1291;545074;-69
2024/03/08 16:13:37;;;;;;;44.40;31.60;;;;;;;;;;103471;1295;545024;-71
2024/03/08 16:17:13;;;;;;;44.50;32.50;;;;;;;;;;103560;1291;545006;-71
2024/03/08 16:20:55;;;;;;;43.20;30.40;;;;;;;;;;104015;1291;545329;-71
2024/03/08 16:24:32;;;;;;;40.50;29.00;;;;;;;;;;103600;1289;544822;-71
2024/03/08 16:28:08;;;;;;;43.10;31.10;;;;;;;;;;103647;1291;545208;-71
2024/03/08 16:31:41;;;;;;;42.90;31.80;;;;;;;;;;104232;1286;544871;-71
2024/03/08 16:35:18;;;;;;;46.50;32.70;;;;;;;;;;103555;1289;545176;-71
2024/03/08 16:38:55;;;;;;;48.60;33.90;;;;;;;;;;103646;1291;544743;-71
2024/03/08 16:42:35;;;;;;;48.00;32.70;;;;;;;;;;103730;1292;545119;-70
2024/03/08 16:46:13;;;;;;;44.30;30.40;;;;;;;;;;103908;1289;544871;-70
2024/03/08 16:49:49;;;;;;;45.20;31.60;;;;;;;;;;103662;1291;544750;-72
2024/03/08 16:53:26;;;;;;;47.10;32.00;;;;;;;;;;103585;1294;544773;-71
2024/03/08 16:57:05;;;;;;;47.90;34.30;;;;;;;;;;103542;1291;545762;-71
2024/03/08 17:00:45;;;;;;;46.70;32.70;;;;;;;;;;103479;1291;545942;-70
2024/03/08 17:04:19;;;;;;;46.40;31.70;;;;;;;;;;103637;1289;545410;-71
2024/03/08 17:07:57;;;;;;;46.60;32.20;;;;;;;;;;103494;1291;544969;-71
2024/03/08 17:11:33;;;;;;;49.30;34.20;;;;;;;;;;104052;1289;545085;-71
2024/03/08 17:15:07;;;;;;;53.80;37.10;;;;;;;;;;103840;1289;545054;-70
2024/03/08 17:19:11;;;;;;;55.50;37.10;;;;;;;;;;103605;1291;545586;-71
2024/03/08 17:22:28;;;;;;;54.60;36.50;;;;;;;;;;103626;1295;544924;-71
2024/03/08 17:26:05;;;;;;;51.70;34.30;;;;;;;;;;103744;1289;546946;-69
2024/03/08 17:29:54;;;;;;;47.90;33.20;;;;;;;;;;103463;1291;545708;-73
2024/03/08 17:33:24;;;;;;;51.40;35.70;;;;;;;;;;103601;1292;545086;-71
2024/03/08 17:36:57;;;;;;;53.00;36.80;;;;;;;;;;103533;1291;545229;-71
2024/03/08 17:40:34;;;;;;;54.20;37.00;;;;;;;;;;104181;1285;544881;-70
2024/03/08 17:44:10;;;;;;;51.30;36.90;;;;;;;;;;103840;1293;545574;-71
2024/03/08 17:47:48;;;;;;;49.20;34.90;;;;;;;;;;103889;1291;545522;-70
2024/03/08 17:51:28;;;;;;;50.50;34.30;;;;;;;;;;103524;1291;544858;-70
2024/03/08 17:55:04;;;;;;;48.50;33.10;;;;;;;;;;103671;1293;545491;-70
2024/03/08 17:58:43;;;;;;;53.50;36.90;;;;;;;;;;103653;1291;545698;-71
2024/03/08 18:02:38;;;;;;;58.50;39.60;;;;;;;;;;103377;1291;545006;-71
2024/03/08 18:05:54;;;;;;;58.40;40.50;;;;;;;;;;103471;1297;544918;-70
2024/03/08 18:09:32;;;;;;;57.40;39.50;;;;;;;;;;103711;1292;545015;-69
2024/03/08 18:13:13;;;;;;;54.30;37.10;;;;;;;;;;103525;1289;544922;-71
2024/03/08 18:17:11;;;;;;;55.10;37.10;;;;;;;;;;103529;1292;544962;-71
2024/03/08 18:20:32;;;;;;;55.10;38.20;;;;;;;;;;103492;1293;545412;-70
2024/03/08 18:24:05;;;;;;;61.40;42.00;;;;;;;;;;103694;1292;544837;-71
2024/03/08 18:27:40;;;;;;;61.00;42.40;;;;;;;;;;103213;1294;544814;-69
2024/03/08 18:31:22;;;;;;;56.90;38.70;;;;;;;;;;103506;1292;545017;-69
2024/03/08 18:34:55;;;;;;;60.00;39.30;;;;;;;;;;103805;1292;545358;-71
2024/03/08 18:38:34;;;;;;;60.40;39.50;;;;;;;;;;103504;1291;545396;-71
2024/03/08 18:42:16;;;;;;;58.40;41.10;;;;;;;;;;103707;1289;544702;-70
2024/03/08 18:45:49;;;;;;;69.70;46.00;;;;;;;;;;103592;1292;546181;-72
2024/03/08 18:49:29;;;;;;;69.10;45.90;;;;;;;;;;103844;1295;544964;-70
2024/03/08 18:53:02;;;;;;;64.10;43.00;;;;;;;;;;103406;1296;544888;-70
2024/03/08 18:56:40;;;;;;;69.50;45.80;;;;;;;;;;103827;1293;544936;-70
2024/03/08 19:00:29;;;;;;;63.30;42.30;;;;;;;;;;103657;1289;545670;-72
2024/03/08 19:03:55;;;;;;;67.60;45.70;;;;;;;;;;103141;1294;545324;-70
2024/03/08 19:07:34;;;;;;;68.80;46.90;;;;;;;;;;103700;1291;545128;-71
2024/03/08 19:11:08;;;;;;;73.50;47.40;;;;;;;;;;103514;1291;545470;-72
2024/03/08 19:14:50;;;;;;;66.20;44.50;;;;;;;;;;103831;1289;544926;-72
2024/03/08 19:18:26;;;;;;;63.60;42.00;;;;;;;;;;103507;1292;545122;-70
2024/03/08 19:22:02;;;;;;;62.20;44.00;;;;;;;;;;103524;1291;546009;-71
2024/03/08 19:25:42;;;;;;;65.20;45.30;;;;;;;;;;103795;1293;545272;-71
2024/03/08 19:29:29;;;;;;;65.20;42.60;;;;;;;;;;103383;1298;544976;-70
2024/03/08 19:33:05;;;;;;;61.10;42.60;;;;;;;;;;103596;1289;544868;-70
2024/03/08 19:37:00;;;;;;;56.90;39.40;;;;;;;;;;103506;1295;544810;-71
2024/03/08 19:40:14;;;;;;;61.40;42.60;;;;;;;;;;103819;1292;544910;-71
2024/03/08 19:43:46;;;;;;;62.60;43.50;;;;;;;;;;103792;1285;544951;-70
2024/03/08 19:47:26;;;;;;;64.50;43.60;;;;;;;;;;103635;1295;545542;-72
2024/03/08 19:51:05;;;;;;;59.00;39.90;;;;;;;;;;103887;1295;545063;-72
2024/03/08 19:54:39;;;;;;;61.70;43.40;;;;;;;;;;103701;1289;545433;-70
2024/03/08 19:58:47;;;;;;;63.70;43.60;;;;;;;;;;103676;1299;544947;-71
2024/03/08 20:01:57;;;;;;;65.60;45.90;;;;;;;;;;103711;1292;545838;-71
2024/03/08 20:05:32;;;;;;;67.20;44.10;;;;;;;;;;103567;1291;546079;-70
2024/03/08 20:09:11;;;;;;;62.60;42.20;;;;;;;;;;104058;1292;544785;-71
2024/03/08 20:12:56;;;;;;;;;;;;;;;;;;;;;
2024/03/08 20:16:24;;;;;;;71.10;48.80;;;;;;;;;;103999;1288;545558;-72
2024/03/08 20:20:01;;;;;;;75.00;50.90;;;;;;;;;;104108;1285;545018;-71
2024/03/08 20:23:44;;;;;;;72.60;48.80;;;;;;;;;;103958;1286;544781;-71
2024/03/08 20:27:18;;;;;;;69.40;47.60;;;;;;;;;;103600;1291;544914;-71
2024/03/08 20:30:53;;;;;;;68.90;44.20;;;;;;;;;;103655;1289;545320;-70
2024/03/08 20:34:44;;;;;;;70.40;47.40;;;;;;;;;;103573;1292;545329;-71
2024/03/08 20:38:19;;;;;;;;;;;;;;;;;;;;;
2024/03/08 20:41:48;;;;;;;75.50;50.20;;;;;;;;;;103498;1294;544967;-71
2024/03/08 20:45:25;;;;;;;67.50;45.30;;;;;;;;;;103500;1291;545016;-70
2024/03/08 20:49:04;;;;;;;66.50;44.70;;;;;;;;;;103640;1293;545623;-71
2024/03/08 20:52:56;;;;;;;;;;;;;;;;;;;;;
2024/03/08 20:56:45;;;;;;;;;;;;;;;;;;;;;
2024/03/08 20:59:54;;;;;;;71.00;49.50;;;;;;;;;;104038;1289;545134;-71
2024/03/08 21:03:28;;;;;;;75.10;50.10;;;;;;;;;;103849;1286;544991;-71